createdAt,value
2023-02-11T00:01:16.027Z,79.62
2023-02-11T00:03:43.771Z,79.64
2023-02-11T00:06:12.271Z,79.47
2023-02-11T00:08:40.458Z,79.36
2023-02-11T00:11:08.851Z,81.40
2023-02-11T00:13:36.501Z,81.44
2023-02-11T00:16:09.394Z,80.89
2023-02-11T00:18:37.683Z,82.32
2023-02-11T00:21:17.064Z,82.84
2023-02-11T00:23:45.543Z,82.47
2023-02-11T00:26:16.244Z,82.48
2023-02-11T00:28:44.568Z,82.29
2023-02-11T00:31:13.581Z,82.16
2023-02-11T00:33:42.021Z,81.98
2023-02-11T00:36:14.553Z,82.19
2023-02-11T00:38:45.420Z,82.29
2023-02-11T00:41:14.528Z,81.46
2023-02-11T00:43:42.700Z,81.42
2023-02-11T00:46:11.367Z,81.17
2023-02-11T00:48:39.228Z,80.67
2023-02-11T00:51:07.170Z,81.06
2023-02-11T00:53:35.773Z,80.67
2023-02-11T00:56:03.839Z,80.48
2023-02-11T00:58:31.756Z,80.47
2023-02-11T01:00:59.695Z,80.31
2023-02-11T01:03:27.746Z,79.77
2023-02-11T01:05:55.415Z,79.69
2023-02-11T01:08:23.399Z,79.62
2023-02-11T01:11:03.096Z,79.44
2023-02-11T01:13:32.327Z,79.27
2023-02-11T01:16:00.127Z,79.33
2023-02-11T01:18:28.483Z,79.23
2023-02-11T01:20:56.378Z,78.98
2023-02-11T01:23:24.125Z,78.71
2023-02-11T01:25:53.079Z,78.69
2023-02-11T01:28:30.146Z,79.12
2023-02-11T01:30:58.489Z,79.37
2023-02-11T01:33:26.205Z,78.91
2023-02-11T01:35:53.972Z,79.40
2023-02-11T01:38:26.771Z,78.97
2023-02-11T01:41:00.859Z,79.38
2023-02-11T01:43:45.989Z,79.58
2023-02-11T01:46:32.803Z,79.24
2023-02-11T01:49:22.532Z,79.19
2023-02-11T01:52:10.994Z,79.51
2023-02-11T01:55:02.400Z,79.20
2023-02-11T01:57:32.642Z,79.19
2023-02-11T02:00:22.631Z,79.16
2023-02-11T02:03:03.480Z,79.70
2023-02-11T02:06:19.340Z,79.90
2023-02-11T02:09:00.395Z,79.15
2023-02-11T02:11:28.329Z,79.24
2023-02-11T02:13:56.124Z,79.84
2023-02-11T02:16:30.830Z,81.11
2023-02-11T02:19:38.850Z,81.59
2023-02-11T02:22:28.102Z,81.07
2023-02-11T02:25:16.968Z,80.80
2023-02-11T02:28:13.740Z,81.05
2023-02-11T02:31:06.290Z,81.32
2023-02-11T02:33:51.272Z,80.92
2023-02-11T02:36:29.300Z,80.14
2023-02-11T02:39:03.099Z,80.25
2023-02-11T02:41:36.286Z,80.14
2023-02-11T02:44:04.559Z,79.92
2023-02-11T02:46:33.917Z,79.95
2023-02-11T02:49:02.270Z,80.05
2023-02-11T02:51:48.082Z,80.02
2023-02-11T02:54:53.699Z,80.70
2023-02-11T02:57:41.469Z,83.15
2023-02-11T03:00:34.228Z,83.40
2023-02-11T03:03:25.482Z,82.63
2023-02-11T03:05:59.757Z,81.98
2023-02-11T03:08:44.694Z,82.40
2023-02-11T03:11:13.568Z,82.09
2023-02-11T03:13:42.789Z,81.72
2023-02-11T03:16:20.459Z,81.33
2023-02-11T03:18:54.004Z,81.25
2023-02-11T03:21:23.690Z,80.97
2023-02-11T03:23:57.440Z,80.93
2023-02-11T03:26:36.910Z,80.75
2023-02-11T03:29:16.527Z,80.91
2023-02-11T03:31:47.103Z,80.95
2023-02-11T03:34:23.099Z,81.25
2023-02-11T03:37:16.828Z,81.69
2023-02-11T03:39:56.727Z,82.54
2023-02-11T03:42:29.971Z,82.42
2023-02-11T03:45:05.240Z,82.12
2023-02-11T03:47:37.207Z,81.90
2023-02-11T03:50:09.449Z,81.44
2023-02-11T03:52:39.320Z,81.66
2023-02-11T03:55:13.601Z,81.23
2023-02-11T03:57:41.397Z,81.18
2023-02-11T04:00:10.496Z,80.91
2023-02-11T04:02:39.387Z,80.68
2023-02-11T04:05:09.163Z,80.62
2023-02-11T04:07:36.978Z,80.40
2023-02-11T04:10:05.630Z,80.22
2023-02-11T04:12:33.470Z,80.19
2023-02-11T04:15:01.210Z,79.89
2023-02-11T04:17:28.989Z,79.81
2023-02-11T04:19:56.652Z,80.07
2023-02-11T04:22:24.388Z,80.10
2023-02-11T04:24:52.162Z,79.61
2023-02-11T04:27:19.921Z,79.67
2023-02-11T04:29:47.568Z,79.67
2023-02-11T04:32:15.796Z,79.74
2023-02-11T04:34:43.619Z,79.52
2023-02-11T04:37:11.287Z,79.71
2023-02-11T04:39:39.215Z,79.53
2023-02-11T04:42:07.040Z,79.47
2023-02-11T04:44:34.920Z,80.38
2023-02-11T04:47:02.714Z,81.17
2023-02-11T04:49:30.502Z,81.19
2023-02-11T04:51:58.185Z,80.97
2023-02-11T04:54:25.915Z,80.53
2023-02-11T04:56:53.621Z,80.28
2023-02-11T04:59:21.348Z,80.44
2023-02-11T05:01:49.052Z,80.75
2023-02-11T05:04:17.776Z,81.07
2023-02-11T05:06:45.572Z,80.96
2023-02-11T05:09:14.093Z,80.87
2023-02-11T05:11:42.046Z,81.05
2023-02-11T05:14:09.783Z,80.91
2023-02-11T05:16:37.614Z,80.94
2023-02-11T05:19:05.553Z,81.29
2023-02-11T05:21:33.419Z,81.35
2023-02-11T05:24:01.150Z,81.03
2023-02-11T05:26:28.921Z,80.83
2023-02-11T05:28:57.340Z,80.61
2023-02-11T05:31:25.066Z,80.54
2023-02-11T05:33:52.894Z,80.11
2023-02-11T05:36:20.601Z,80.45
2023-02-11T05:38:48.347Z,80.34
2023-02-11T05:41:16.078Z,80.44
2023-02-11T05:43:43.902Z,80.45
2023-02-11T05:46:11.684Z,80.47
2023-02-11T05:48:39.417Z,80.93
2023-02-11T05:51:07.119Z,81.10
2023-02-11T05:53:34.796Z,81.03
2023-02-11T05:56:02.660Z,81.12
2023-02-11T05:58:30.399Z,81.37
2023-02-11T06:00:58.172Z,82.17
2023-02-11T06:03:25.931Z,83.96
2023-02-11T06:05:53.608Z,83.65
2023-02-11T06:08:21.371Z,84.19
2023-02-11T06:10:49.140Z,85.18
2023-02-11T06:13:19.683Z,84.83
2023-02-11T06:15:57.374Z,85.54
2023-02-11T06:18:25.369Z,86.00
2023-02-11T06:20:53.331Z,85.30
2023-02-11T06:23:21.084Z,85.04
2023-02-11T06:25:49.420Z,84.64
2023-02-11T06:28:17.542Z,84.02
2023-02-11T06:30:45.593Z,83.67
2023-02-11T06:33:13.277Z,83.11
2023-02-11T06:35:41.224Z,83.33
2023-02-11T06:38:08.911Z,83.08
2023-02-11T06:40:36.673Z,82.76
2023-02-11T06:43:04.339Z,82.50
2023-02-11T06:45:32.057Z,82.84
2023-02-11T06:47:59.879Z,82.57
2023-02-11T06:50:27.608Z,82.24
2023-02-11T06:52:55.256Z,82.05
2023-02-11T06:55:22.914Z,81.85
2023-02-11T06:57:50.663Z,81.69
2023-02-11T07:00:18.734Z,81.40
2023-02-11T07:02:46.505Z,81.06
2023-02-11T07:05:14.342Z,81.35
2023-02-11T07:07:41.988Z,80.92
2023-02-11T07:10:10.448Z,81.03
2023-02-11T07:12:38.780Z,80.81
2023-02-11T07:15:07.349Z,80.77
2023-02-11T07:17:36.697Z,80.71
2023-02-11T07:20:05.289Z,80.64
2023-02-11T07:22:32.993Z,81.09
2023-02-11T07:25:00.732Z,81.31
2023-02-11T07:27:28.436Z,81.58
2023-02-11T07:29:56.046Z,81.79
2023-02-11T07:32:23.796Z,81.95
2023-02-11T07:34:51.725Z,82.22
2023-02-11T07:37:20.029Z,82.46
2023-02-11T07:39:47.810Z,82.43
2023-02-11T07:42:15.579Z,82.29
2023-02-11T07:44:43.270Z,82.21
2023-02-11T07:47:10.974Z,82.18
2023-02-11T07:49:38.731Z,82.39
2023-02-11T07:52:06.569Z,82.33
2023-02-11T07:54:34.267Z,82.50
2023-02-11T07:57:01.949Z,82.45
2023-02-11T07:59:29.661Z,82.41
2023-02-11T08:01:57.489Z,82.52
2023-02-11T08:04:25.175Z,82.57
2023-02-11T08:06:55.499Z,82.73
2023-02-11T08:09:25.013Z,82.81
2023-02-11T08:11:52.747Z,82.60
2023-02-11T08:14:21.705Z,82.64
2023-02-11T08:16:49.410Z,82.73
2023-02-11T08:19:18.496Z,82.51
2023-02-11T08:21:46.243Z,82.95
2023-02-11T08:24:13.992Z,82.80
2023-02-11T08:26:42.209Z,82.04
2023-02-11T08:29:12.862Z,81.97
2023-02-11T08:31:43.162Z,81.73
2023-02-11T08:34:12.637Z,81.97
2023-02-11T08:36:41.416Z,82.24
2023-02-11T08:39:19.668Z,82.38
2023-02-11T08:41:50.245Z,82.76
2023-02-11T08:44:19.406Z,83.20
2023-02-11T08:46:48.157Z,83.26
2023-02-11T08:49:16.421Z,83.50
2023-02-11T08:51:44.937Z,83.47
2023-02-11T08:54:13.210Z,83.35
2023-02-11T08:56:41.201Z,83.54
2023-02-11T08:59:10.372Z,83.84
2023-02-11T09:01:38.250Z,83.82
2023-02-11T09:04:06.511Z,83.96
2023-02-11T09:06:34.284Z,83.66
2023-02-11T09:09:02.117Z,84.04
2023-02-11T09:11:33.200Z,84.33
2023-02-11T09:14:01.872Z,84.10
2023-02-11T09:16:34.921Z,84.17
2023-02-11T09:19:04.087Z,84.12
2023-02-11T09:21:32.320Z,84.01
2023-02-11T09:24:00.297Z,83.96
2023-02-11T09:26:31.488Z,83.52
2023-02-11T09:28:59.762Z,83.33
2023-02-11T09:31:29.919Z,83.04
2023-02-11T09:34:01.745Z,82.45
2023-02-11T09:36:35.214Z,81.94
2023-02-11T09:39:05.053Z,81.65
2023-02-11T09:41:51.316Z,81.39
2023-02-11T09:44:23.459Z,81.43
2023-02-11T09:47:00.928Z,81.34
2023-02-11T09:49:45.495Z,80.58
2023-02-11T09:52:31.575Z,79.85
2023-02-11T09:55:03.331Z,80.71
2023-02-11T09:57:37.297Z,81.10
2023-02-11T10:00:18.127Z,81.06
2023-02-11T10:03:10.560Z,80.70
2023-02-11T10:06:05.628Z,80.81
2023-02-11T10:09:10.684Z,80.72
2023-02-11T10:11:58.399Z,80.43
2023-02-11T10:14:50.717Z,80.06
2023-02-11T10:17:36.240Z,79.77
2023-02-11T10:20:34.633Z,79.29
2023-02-11T10:23:11.631Z,78.81
2023-02-11T10:25:45.384Z,79.31
2023-02-11T10:28:22.245Z,78.84
2023-02-11T10:31:07.066Z,78.36
2023-02-11T10:33:50.185Z,78.56
2023-02-11T10:36:19.458Z,78.35
2023-02-11T10:38:47.564Z,78.38
2023-02-11T10:41:36.841Z,78.40
2023-02-11T10:44:08.404Z,77.64
2023-02-11T10:46:41.225Z,78.13
2023-02-11T10:49:09.081Z,77.54
2023-02-11T10:51:36.897Z,77.08
2023-02-11T10:54:20.488Z,77.64
2023-02-11T10:56:59.710Z,78.12
2023-02-11T10:59:41.283Z,78.28
2023-02-11T11:02:39.899Z,78.27
2023-02-11T11:05:21.045Z,77.72
2023-02-11T11:08:00.885Z,77.83
2023-02-11T11:10:30.448Z,78.24
2023-02-11T11:12:58.398Z,77.85
2023-02-11T11:15:31.916Z,78.09
2023-02-11T11:18:22.627Z,77.68
2023-02-11T11:21:01.302Z,77.23
2023-02-11T11:23:31.912Z,76.65
2023-02-11T11:26:12.739Z,76.71
2023-02-11T11:28:53.591Z,76.42
2023-02-11T11:31:26.057Z,75.04
2023-02-11T11:33:56.784Z,74.87
2023-02-11T11:36:33.661Z,75.01
2023-02-11T11:39:05.575Z,75.07
2023-02-11T11:41:36.005Z,74.59
2023-02-11T11:44:35.719Z,74.00
2023-02-11T11:47:12.359Z,73.00
2023-02-11T11:49:57.047Z,72.76
2023-02-11T11:52:47.643Z,71.05
2023-02-11T11:55:45.872Z,70.98
2023-02-11T11:58:24.245Z,70.93
2023-02-11T12:01:03.177Z,70.41
2023-02-11T12:03:48.132Z,71.20
2023-02-11T12:06:31.050Z,69.48
2023-02-11T12:09:01.689Z,69.36
2023-02-11T12:11:38.255Z,67.09
2023-02-11T12:14:17.280Z,68.81
2023-02-11T12:16:50.999Z,67.41
2023-02-11T12:20:01.477Z,67.18
2023-02-11T12:22:37.053Z,65.59
2023-02-11T12:25:04.961Z,65.77
2023-02-11T12:27:51.802Z,64.90
2023-02-11T12:30:29.989Z,65.29
2023-02-11T12:33:18.898Z,64.36
2023-02-11T12:36:24.214Z,63.41
2023-02-11T12:39:13.302Z,63.24
2023-02-11T12:42:44.838Z,62.61
2023-02-11T12:45:12.448Z,62.99
2023-02-11T12:48:06.122Z,61.45
2023-02-11T12:50:57.945Z,61.71
2023-02-11T12:53:37.587Z,61.94
2023-02-11T12:56:12.666Z,62.14
2023-02-11T12:58:45.408Z,62.31
2023-02-11T13:01:33.665Z,62.70
2023-02-11T13:04:12.331Z,60.42
2023-02-11T13:06:50.257Z,61.15
2023-02-11T13:09:29.247Z,60.89
2023-02-11T13:12:00.104Z,61.34
2023-02-11T13:14:27.841Z,61.99
2023-02-11T13:16:59.698Z,62.27
2023-02-11T13:19:35.909Z,62.58
2023-02-11T13:22:09.678Z,62.16
2023-02-11T13:25:03.339Z,62.10
2023-02-11T13:27:41.644Z,59.00
2023-02-11T13:30:52.316Z,58.67
2023-02-11T13:33:33.996Z,58.57
2023-02-11T13:36:04.476Z,59.23
2023-02-11T13:38:33.888Z,57.77
2023-02-11T13:41:05.121Z,55.19
2023-02-11T13:43:36.506Z,54.72
2023-02-11T13:46:13.133Z,56.18
2023-02-11T13:48:48.629Z,56.11
2023-02-11T13:51:20.151Z,56.47
2023-02-11T13:53:51.902Z,57.21
2023-02-11T13:56:29.463Z,56.71
2023-02-11T13:59:01.480Z,56.22
2023-02-11T14:02:08.234Z,57.39
2023-02-11T14:04:54.756Z,57.29
2023-02-11T14:07:52.420Z,57.49
2023-02-11T14:10:44.892Z,57.60
2023-02-11T14:13:31.417Z,57.54
2023-02-11T14:16:28.149Z,56.70
2023-02-11T14:19:03.660Z,57.34
2023-02-11T14:21:35.949Z,57.97
2023-02-11T14:24:03.643Z,58.40
2023-02-11T14:26:55.759Z,58.62
2023-02-11T14:29:38.443Z,58.55
2023-02-11T14:32:11.922Z,58.25
2023-02-11T14:34:51.360Z,58.31
2023-02-11T14:37:37.922Z,58.66
2023-02-11T14:40:29.241Z,58.42
2023-02-11T14:42:59.314Z,59.02
2023-02-11T14:45:29.938Z,59.21
2023-02-11T14:48:18.768Z,59.55
2023-02-11T14:50:53.154Z,59.39
2023-02-11T14:53:24.990Z,59.90
2023-02-11T14:55:55.230Z,60.11
2023-02-11T14:58:26.808Z,60.22
2023-02-11T15:00:56.577Z,60.55
2023-02-11T15:03:37.481Z,60.73
2023-02-11T15:06:23.633Z,60.90
2023-02-11T15:09:12.908Z,61.33
2023-02-11T15:11:43.604Z,61.48
2023-02-11T15:14:19.917Z,61.68
2023-02-11T15:16:48.633Z,61.92
2023-02-11T15:19:37.935Z,62.21
2023-02-11T15:22:08.527Z,63.17
2023-02-11T15:24:37.020Z,63.35
2023-02-11T15:27:13.930Z,63.70
2023-02-11T15:29:51.777Z,64.24
2023-02-11T15:32:22.858Z,64.16
2023-02-11T15:34:53.215Z,64.12
2023-02-11T15:37:26.906Z,64.17
2023-02-11T15:39:56.214Z,64.02
2023-02-11T15:42:32.528Z,64.14
2023-02-11T15:45:30.057Z,64.37
2023-02-11T15:48:27.700Z,64.83
2023-02-11T15:50:59.955Z,65.12
2023-02-11T15:53:32.682Z,65.34
2023-02-11T15:56:13.348Z,65.42
2023-02-11T15:58:44.579Z,65.66
2023-02-11T16:01:13.835Z,65.55
2023-02-11T16:03:43.675Z,65.59
2023-02-11T16:06:49.654Z,65.55
2023-02-11T16:09:17.336Z,65.69
2023-02-11T16:11:48.253Z,65.94
2023-02-11T16:14:40.429Z,66.29
2023-02-11T16:17:25.152Z,66.77
2023-02-11T16:19:54.790Z,67.54
2023-02-11T16:22:31.549Z,67.49
2023-02-11T16:25:01.010Z,68.12
2023-02-11T16:27:40.913Z,68.42
2023-02-11T16:30:28.957Z,69.86
2023-02-11T16:32:56.768Z,70.80
2023-02-11T16:35:24.550Z,70.42
2023-02-11T16:37:52.437Z,70.61
2023-02-11T16:40:20.242Z,70.86
2023-02-11T16:42:47.992Z,71.97
2023-02-11T16:45:16.591Z,72.33
2023-02-11T16:47:44.579Z,73.84
2023-02-11T16:50:20.728Z,73.63
2023-02-11T16:52:49.546Z,73.59
2023-02-11T16:55:17.371Z,74.22
2023-02-11T16:57:45.308Z,74.49
2023-02-11T17:00:17.296Z,74.59
2023-02-11T17:02:45.218Z,75.05
2023-02-11T17:05:24.180Z,75.36
2023-02-11T17:07:52.704Z,75.60
2023-02-11T17:10:23.775Z,75.09
2023-02-11T17:12:52.549Z,75.32
2023-02-11T17:15:20.293Z,75.50
2023-02-11T17:17:48.066Z,76.02
2023-02-11T17:20:16.541Z,76.26
2023-02-11T17:22:44.381Z,76.25
2023-02-11T17:25:12.567Z,78.50
2023-02-11T17:27:40.486Z,81.69
2023-02-11T17:30:09.093Z,82.22
2023-02-11T17:32:38.024Z,86.74
2023-02-11T17:35:09.281Z,85.05
2023-02-11T17:37:37.177Z,88.26
2023-02-11T17:40:05.055Z,88.81
2023-02-11T17:45:00.463Z,89.34
2023-02-11T17:47:28.144Z,91.90
2023-02-11T17:49:55.954Z,89.15
2023-02-11T17:52:25.385Z,88.74
2023-02-11T17:54:53.128Z,90.12
2023-02-11T17:57:21.265Z,92.06
2023-02-11T17:59:49.074Z,87.16
2023-02-11T18:02:16.930Z,91.24
2023-02-11T18:04:45.665Z,96.62
2023-02-11T18:07:13.775Z,92.53
2023-02-11T18:09:42.053Z,93.36
2023-02-11T18:12:10.457Z,93.49
2023-02-11T18:14:42.088Z,94.16
2023-02-11T18:17:10.053Z,93.66
2023-02-11T18:19:38.718Z,92.55
2023-02-11T18:22:06.570Z,92.56
2023-02-11T18:24:34.284Z,91.67
2023-02-11T18:27:02.372Z,92.07
2023-02-11T18:29:30.082Z,89.60
2023-02-11T18:31:58.322Z,91.33
2023-02-11T18:34:27.106Z,90.18
2023-02-11T18:36:55.311Z,89.91
2023-02-11T18:39:25.500Z,89.60
2023-02-11T18:41:57.798Z,89.67
2023-02-11T18:44:26.059Z,90.10
2023-02-11T18:46:54.573Z,89.43
2023-02-11T18:49:22.336Z,90.95
2023-02-11T18:51:50.148Z,90.79
2023-02-11T18:54:17.960Z,91.06
2023-02-11T18:56:45.735Z,88.36
2023-02-11T18:59:13.800Z,90.03
2023-02-11T19:01:44.545Z,88.94
2023-02-11T19:04:12.533Z,94.45
2023-02-11T19:06:40.633Z,93.89
2023-02-11T19:09:11.404Z,93.91
2023-02-11T19:11:51.317Z,92.80
2023-02-11T19:14:32.604Z,93.15
2023-02-11T19:17:02.664Z,91.33
2023-02-11T19:19:32.904Z,90.09
2023-02-11T19:22:02.055Z,88.71
2023-02-11T19:24:31.002Z,86.76
2023-02-11T19:27:01.271Z,87.31
2023-02-11T19:29:29.965Z,86.47
2023-02-11T19:31:57.717Z,86.54
2023-02-11T19:34:25.597Z,86.00
2023-02-11T19:36:55.313Z,85.13
2023-02-11T19:39:25.063Z,85.01
2023-02-11T19:41:53.574Z,84.82
2023-02-11T19:44:21.384Z,84.59
2023-02-11T19:46:51.378Z,84.14
2023-02-11T19:49:24.036Z,84.03
2023-02-11T19:51:53.263Z,84.14
2023-02-11T19:54:21.582Z,84.18
2023-02-11T19:56:49.983Z,84.11
2023-02-11T19:59:17.873Z,83.89
2023-02-11T20:01:48.611Z,83.81
2023-02-11T20:04:19.217Z,83.82
2023-02-11T20:06:49.427Z,84.21
2023-02-11T20:09:17.368Z,84.38
2023-02-11T20:11:45.627Z,84.02
2023-02-11T20:14:15.777Z,84.11
2023-02-11T20:16:49.289Z,85.37
2023-02-11T20:19:20.441Z,85.25
2023-02-11T20:21:50.086Z,85.14
2023-02-11T20:24:19.818Z,85.04
2023-02-11T20:26:49.329Z,85.44
2023-02-11T20:29:18.680Z,85.02
2023-02-11T20:31:46.897Z,84.77
2023-02-11T20:34:14.700Z,85.00
2023-02-11T20:36:42.692Z,84.88
2023-02-11T20:39:12.250Z,84.66
2023-02-11T20:41:40.905Z,84.65
2023-02-11T20:44:11.587Z,84.80
2023-02-11T20:46:42.965Z,84.78
2023-02-11T20:49:20.728Z,85.11
2023-02-11T20:51:48.564Z,84.89
2023-02-11T20:54:19.831Z,84.52
2023-02-11T20:56:49.130Z,84.35
2023-02-11T20:59:17.878Z,84.14
2023-02-11T21:01:49.879Z,84.21
2023-02-11T21:04:21.235Z,84.43
2023-02-11T21:06:51.659Z,84.51
2023-02-11T21:09:23.049Z,83.95
2023-02-11T21:11:52.779Z,83.92
2023-02-11T21:14:22.239Z,83.70
2023-02-11T21:16:50.431Z,83.66
2023-02-11T21:19:18.137Z,83.72
2023-02-11T21:21:45.830Z,83.74
2023-02-11T21:24:13.960Z,83.74
2023-02-11T21:26:41.827Z,83.67
2023-02-11T21:29:09.806Z,83.93
2023-02-11T21:31:38.230Z,83.86
2023-02-11T21:34:07.047Z,83.83
2023-02-11T21:36:35.129Z,83.69
2023-02-11T21:39:04.906Z,83.92
2023-02-11T21:41:32.919Z,84.03
2023-02-11T21:44:00.610Z,84.14
2023-02-11T21:46:30.362Z,84.60
2023-02-11T21:48:59.370Z,84.82
2023-02-11T21:51:27.530Z,85.77
2023-02-11T21:54:02.398Z,86.42
2023-02-11T21:56:32.415Z,86.16
2023-02-11T21:59:00.868Z,85.81
2023-02-11T22:01:34.065Z,86.24
2023-02-11T22:04:01.750Z,86.06
2023-02-11T22:06:32.137Z,86.92
2023-02-11T22:09:02.827Z,91.90
2023-02-11T22:11:30.583Z,90.80
2023-02-11T22:13:58.976Z,90.33
2023-02-11T22:16:28.756Z,88.17
2023-02-11T22:18:59.517Z,87.46
2023-02-11T22:21:28.134Z,87.64
2023-02-11T22:23:57.037Z,87.99
2023-02-11T22:26:26.866Z,88.33
2023-02-11T22:28:54.912Z,87.01
2023-02-11T22:31:29.685Z,87.11
2023-02-11T22:33:58.598Z,86.71
2023-02-11T22:36:29.358Z,85.99
2023-02-11T22:39:00.505Z,84.10
2023-02-11T22:41:28.339Z,84.57
2023-02-11T22:43:56.030Z,84.96
2023-02-11T22:46:23.855Z,80.55
2023-02-11T22:48:52.427Z,78.63
2023-02-11T22:51:23.378Z,77.64
2023-02-11T22:53:59.263Z,77.14
2023-02-11T22:56:28.257Z,75.81
2023-02-11T22:58:59.656Z,76.45
2023-02-11T23:01:28.027Z,75.86
2023-02-11T23:03:55.959Z,75.85
2023-02-11T23:06:24.039Z,75.80
2023-02-11T23:08:51.864Z,75.95
2023-02-11T23:11:22.752Z,75.99
2023-02-11T23:13:53.024Z,75.92
2023-02-11T23:16:24.089Z,76.52
2023-02-11T23:18:52.517Z,76.86
2023-02-11T23:21:30.359Z,76.92
2023-02-11T23:24:05.168Z,77.21
2023-02-11T23:26:33.225Z,78.07
2023-02-11T23:29:01.381Z,77.97
2023-02-11T23:31:31.957Z,78.82
2023-02-11T23:33:59.616Z,79.68
2023-02-11T23:36:27.737Z,80.20
2023-02-11T23:38:55.535Z,80.67
2023-02-11T23:41:24.362Z,80.90
2023-02-11T23:43:53.858Z,80.49
2023-02-11T23:46:25.591Z,80.39
2023-02-11T23:48:54.275Z,80.74
2023-02-11T23:51:22.294Z,81.36
2023-02-11T23:53:50.841Z,80.97
2023-02-11T23:56:20.926Z,81.24
2023-02-11T23:58:53.935Z,81.13
